Time;durP1;ratioP1;P1;durP2;ratioP2;P2;SDS_P1;SDS_P2;PMS_P1;PMS_P2;Temp;Humidity;BMP_temperature;BMP_pressure;BME280_temperature;BME280_humidity;BME280_pressure;Samples;Min_cycle;Max_cycle;Signal;HPM_P1;HPM_P2
2023/03/31 00:01:47;;;;;;;15.38;2.67;;;10.20;99.90;;;;;;4999189;28;20083;-74
2023/03/31 00:04:13;;;;;;;8.68;2.15;;;10.20;99.90;;;;;;4996993;28;20042;-72
2023/03/31 00:06:40;;;;;;;9.88;2.60;;;10.20;99.90;;;;;;5001863;28;20049;-74
2023/03/31 00:09:24;;;;;;;11.60;1.70;;;10.20;99.90;;;;;;5002546;28;20037;-73
2023/03/31 00:11:51;;;;;;;11.35;1.95;;;10.30;99.90;;;;;;4998100;28;20030;-74
2023/03/31 00:14:18;;;;;;;13.73;2.10;;;10.20;99.90;;;;;;4997853;28;20037;-73
2023/03/31 00:16:44;;;;;;;9.05;1.55;;;10.30;99.90;;;;;;5011304;28;20894;-74
2023/03/31 00:19:16;;;;;;;8.02;2.00;;;10.30;99.90;;;;;;5000761;28;20038;-73
2023/03/31 00:21:43;;;;;;;8.27;1.52;;;10.30;99.90;;;;;;5012868;28;20056;-74
2023/03/31 00:24:11;;;;;;;8.63;2.35;;;10.30;99.90;;;;;;4996221;28;20034;-75
2023/03/31 00:26:37;;;;;;;14.80;2.15;;;10.30;99.90;;;;;;5000526;28;20045;-73
2023/03/31 00:29:08;;;;;;;8.88;1.13;;;10.30;99.90;;;;;;4998459;28;20034;-74
2023/03/31 00:31:34;;;;;;;7.50;1.65;;;10.30;99.90;;;;;;4999116;28;20038;-76
2023/03/31 00:34:00;;;;;;;11.13;1.63;;;10.40;99.90;;;;;;4997326;28;20441;-75
2023/03/31 00:36:26;;;;;;;8.13;1.23;;;10.40;99.90;;;;;;4995079;28;20054;-72
2023/03/31 00:39:07;;;;;;;11.98;1.50;;;10.40;99.90;;;;;;5019365;28;20410;-73
2023/03/31 00:41:32;;;;;;;12.93;1.65;;;10.40;99.90;;;;;;5000125;28;20045;-73
2023/03/31 00:44:23;;;;;;;7.35;1.52;;;10.40;99.90;;;;;;4997047;28;20030;-73
2023/03/31 00:46:56;;;;;;;8.70;1.20;;;10.50;99.90;;;;;;4997301;28;20102;-74
2023/03/31 00:49:29;;;;;;;11.30;1.70;;;10.50;99.90;;;;;;5001016;28;20617;-73
2023/03/31 00:52:06;;;;;;;11.38;1.90;;;10.60;99.90;;;;;;5004131;28;22271;-75
2023/03/31 00:54:33;;;;;;;7.13;1.80;;;10.60;99.90;;;;;;4997578;28;20069;-72
2023/03/31 00:57:02;;;;;;;7.47;1.40;;;10.60;99.90;;;;;;5001082;28;20038;-73
2023/03/31 00:59:31;;;;;;;5.78;1.10;;;10.60;99.90;;;;;;4999552;28;20097;-74
2023/03/31 01:02:01;;;;;;;9.57;1.73;;;10.60;99.90;;;;;;4997186;28;20495;-74
2023/03/31 01:04:30;;;;;;;8.50;1.13;;;10.60;99.90;;;;;;5025677;28;20038;-74
2023/03/31 01:07:02;;;;;;;7.40;0.93;;;10.60;99.90;;;;;;5002251;28;20040;-73
2023/03/31 01:09:33;;;;;;;6.47;1.42;;;10.60;99.90;;;;;;4997725;28;20033;-74
2023/03/31 01:12:01;;;;;;;5.57;1.10;;;10.50;99.90;;;;;;4996890;28;20053;-72
2023/03/31 01:14:27;;;;;;;11.30;1.20;;;10.60;99.90;;;;;;4994258;28;20407;-75
2023/03/31 01:16:53;;;;;;;7.43;0.80;;;10.60;99.90;;;;;;5018425;28;20027;-75
2023/03/31 01:20:11;;;;;;;9.85;1.02;;;10.70;99.90;;;;;;5021537;28;20038;-74
2023/03/31 01:23:07;;;;;;;7.57;1.30;;;10.70;99.90;;;;;;4986751;28;20039;-74
2023/03/31 01:25:51;;;;;;;7.18;1.27;;;10.80;99.90;;;;;;5007377;28;20137;-73
2023/03/31 01:28:56;;;;;;;7.03;1.33;;;10.90;99.90;;;;;;4997452;28;20045;-74
2023/03/31 01:31:39;;;;;;;9.32;1.60;;;10.90;99.90;;;;;;5008753;28;20449;-73
2023/03/31 01:34:41;;;;;;;8.90;2.38;;;10.80;99.90;;;;;;4998823;28;20030;-74
2023/03/31 01:37:27;;;;;;;9.45;2.13;;;10.90;99.90;;;;;;4998791;28;20037;-73
2023/03/31 01:40:01;;;;;;;6.35;2.30;;;10.90;99.90;;;;;;5009645;28;20034;-73
2023/03/31 01:42:34;;;;;;;10.45;2.55;;;10.90;99.90;;;;;;4996558;28;20037;-73
2023/03/31 01:45:25;;;;;;;7.03;1.33;;;10.90;99.90;;;;;;4996088;28;20026;-74
2023/03/31 01:48:05;;;;;;;4.07;1.42;;;10.90;99.90;;;;;;4996435;28;20264;-74
2023/03/31 01:50:43;;;;;;;10.52;2.10;;;10.90;99.90;;;;;;4991385;28;20037;-74
2023/03/31 01:53:39;;;;;;;12.68;2.15;;;10.80;99.90;;;;;;4994740;28;20109;-74
2023/03/31 01:56:14;;;;;;;9.23;2.25;;;10.80;99.90;;;;;;4995521;28;20053;-74
2023/03/31 01:58:43;;;;;;;11.00;2.72;;;10.80;99.90;;;;;;5001442;28;20038;-71
2023/03/31 02:01:28;;;;;;;10.98;2.28;;;10.90;99.90;;;;;;4997677;28;20038;-74
2023/03/31 02:04:09;;;;;;;10.48;2.80;;;10.90;99.90;;;;;;5001153;28;20033;-74
2023/03/31 02:06:39;;;;;;;12.13;2.78;;;10.90;99.90;;;;;;4995720;28;20042;-74
2023/03/31 02:09:08;;;;;;;;;;;10.90;99.90;;;;;;4999437;28;20045;-72
2023/03/31 02:11:34;;;;;;;8.07;1.85;;;10.90;99.90;;;;;;5000544;28;19918;-75
2023/03/31 02:14:02;;;;;;;8.38;1.70;;;10.90;99.90;;;;;;5005877;28;20829;-74
2023/03/31 02:16:31;;;;;;;10.52;1.77;;;10.90;99.90;;;;;;5002079;28;20129;-74
2023/03/31 02:19:04;;;;;;;11.30;3.10;;;10.90;99.90;;;;;;4997503;28;20499;-72
2023/03/31 02:21:37;;;;;;;9.18;1.83;;;10.90;99.90;;;;;;4994998;28;20038;-72
2023/03/31 02:24:07;;;;;;;9.90;1.70;;;10.80;99.90;;;;;;4997274;28;20552;-74
2023/03/31 02:26:41;;;;;;;14.10;2.42;;;10.80;99.90;;;;;;5002305;28;20061;-74
2023/03/31 02:29:09;;;;;;;6.85;1.50;;;10.70;99.90;;;;;;5005146;28;20034;-75
2023/03/31 02:31:50;;;;;;;13.07;1.70;;;10.70;99.90;;;;;;5012780;28;20050;-77
2023/03/31 02:34:15;;;;;;;9.50;1.75;;;10.70;99.90;;;;;;5005084;28;20061;-73
2023/03/31 02:36:44;;;;;;;5.75;1.20;;;10.70;99.90;;;;;;5003422;28;20413;-74
2023/03/31 02:39:14;;;;;;;9.38;1.98;;;10.60;99.90;;;;;;5003466;28;20042;-72
2023/03/31 02:41:40;;;;;;;11.23;2.20;;;10.60;99.90;;;;;;5003701;28;20454;-73
2023/03/31 02:44:05;;;;;;;19.27;2.65;;;10.60;99.90;;;;;;5003895;28;20029;-75
2023/03/31 02:46:31;;;;;;;16.05;2.53;;;10.50;99.90;;;;;;4999774;28;20086;-74
2023/03/31 02:48:59;;;;;;;12.73;1.92;;;10.60;99.90;;;;;;5024035;28;20030;-75
2023/03/31 02:51:43;;;;;;;12.38;2.53;;;10.60;99.90;;;;;;5002944;28;20121;-74
2023/03/31 02:54:34;;;;;;;10.27;1.85;;;10.50;99.90;;;;;;5014542;28;20865;-75
2023/03/31 02:57:24;;;;;;;15.50;3.15;;;10.50;99.90;;;;;;5004222;28;20041;-75
2023/03/31 03:00:08;;;;;;;9.20;2.22;;;10.50;99.90;;;;;;5003822;28;20503;-74
2023/03/31 03:02:50;;;;;;;17.00;2.97;;;10.50;99.90;;;;;;5015764;28;20113;-74
2023/03/31 03:05:40;;;;;;;11.55;2.33;;;10.50;99.90;;;;;;5003960;28;20030;-73
2023/03/31 03:08:20;;;;;;;10.95;1.90;;;10.50;99.90;;;;;;5013508;28;20041;-74
2023/03/31 03:11:16;;;;;;;11.82;1.80;;;10.50;99.90;;;;;;5002170;28;20031;-72
2023/03/31 03:14:12;;;;;;;11.07;2.33;;;10.50;99.90;;;;;;5002429;28;20041;-74
2023/03/31 03:16:43;;;;;;;9.32;1.48;;;10.40;99.90;;;;;;5001977;28;20050;-75
2023/03/31 03:19:09;;;;;;;10.00;2.13;;;10.50;99.90;;;;;;5001684;28;20038;-76
2023/03/31 03:21:35;;;;;;;13.68;2.38;;;10.40;99.90;;;;;;5001668;28;20137;-74
2023/03/31 03:24:00;;;;;;;10.57;1.98;;;10.40;99.90;;;;;;5019843;28;20788;-71
2023/03/31 03:26:26;;;;;;;23.50;3.55;;;10.40;99.90;;;;;;5002497;28;20026;-72
2023/03/31 03:28:53;;;;;;;12.57;1.98;;;10.40;99.90;;;;;;5011679;28;20044;-75
2023/03/31 03:31:19;;;;;;;9.63;1.92;;;10.40;99.90;;;;;;5003587;28;20066;-75
2023/03/31 03:33:45;;;;;;;12.43;2.55;;;10.40;99.90;;;;;;5000942;28;20035;-75
2023/03/31 03:36:11;;;;;;;8.43;1.98;;;10.30;99.90;;;;;;4999875;28;20100;-73
2023/03/31 03:38:37;;;;;;;10.95;1.20;;;10.30;99.90;;;;;;5002692;28;20129;-75
2023/03/31 03:41:02;;;;;;;10.25;1.75;;;10.30;99.90;;;;;;5019833;28;20449;-75
2023/03/31 03:43:28;;;;;;;8.70;2.38;;;10.40;99.90;;;;;;5001309;28;20045;-76
2023/03/31 03:45:54;;;;;;;20.15;3.05;;;10.40;99.90;;;;;;5002073;28;20121;-74
2023/03/31 03:48:20;;;;;;;10.63;2.20;;;10.30;99.90;;;;;;5003975;28;20401;-76
2023/03/31 03:50:46;;;;;;;12.38;2.38;;;10.30;99.90;;;;;;5002196;28;20483;-75
2023/03/31 03:53:13;;;;;;;11.45;1.83;;;10.30;99.90;;;;;;5001098;28;20050;-70
2023/03/31 03:55:39;;;;;;;12.27;1.98;;;10.30;99.90;;;;;;4998736;28;20042;-74
2023/03/31 03:58:04;;;;;;;12.23;2.10;;;10.30;99.90;;;;;;5001636;28;20049;-74
2023/03/31 04:00:30;;;;;;;8.77;1.42;;;10.40;99.90;;;;;;4999494;28;20033;-74
2023/03/31 04:02:56;;;;;;;7.72;1.25;;;10.30;99.90;;;;;;5000803;28;20123;-74
2023/03/31 04:05:21;;;;;;;13.90;3.33;;;10.30;99.90;;;;;;5001512;28;20037;-74
2023/03/31 04:07:47;;;;;;;7.93;1.95;;;10.30;99.90;;;;;;4999578;28;20034;-74
2023/03/31 04:10:13;;;;;;;5.15;1.35;;;10.30;99.90;;;;;;5003370;28;20797;-74
2023/03/31 04:12:39;;;;;;;5.68;1.55;;;10.20;99.90;;;;;;4999461;28;20033;-76
2023/03/31 04:15:05;;;;;;;5.80;1.05;;;10.20;99.90;;;;;;5001570;28;20042;-75
2023/03/31 04:17:35;;;;;;;14.73;2.30;;;10.20;99.90;;;;;;5008656;28;20038;-71
2023/03/31 04:20:08;;;;;;;7.10;0.95;;;10.20;99.90;;;;;;5002575;28;20034;-74
2023/03/31 04:22:39;;;;;;;8.05;1.45;;;10.20;99.90;;;;;;4998154;28;20096;-73
2023/03/31 04:25:13;;;;;;;7.30;1.23;;;10.20;99.90;;;;;;5003536;28;20045;-74
2023/03/31 04:27:45;;;;;;;6.38;1.33;;;10.20;99.90;;;;;;4995873;28;20137;-76
2023/03/31 04:30:21;;;;;;;12.90;1.33;;;10.20;99.90;;;;;;4997790;28;20038;-75
2023/03/31 04:32:52;;;;;;;10.55;1.83;;;10.20;99.90;;;;;;5001345;28;20041;-75
2023/03/31 04:35:19;;;;;;;5.07;1.30;;;10.20;99.90;;;;;;4996560;28;20696;-76
2023/03/31 04:37:46;;;;;;;10.52;2.03;;;10.20;99.90;;;;;;4998373;28;20041;-74
2023/03/31 04:40:12;;;;;;;7.00;0.90;;;10.20;99.90;;;;;;4996758;28;20117;-75
2023/03/31 04:42:38;;;;;;;12.25;1.42;;;10.20;99.90;;;;;;4997129;28;20037;-75
2023/03/31 04:45:04;;;;;;;9.48;1.20;;;10.20;99.90;;;;;;4998307;28;20551;-76
2023/03/31 04:47:29;;;;;;;11.10;1.65;;;10.20;99.90;;;;;;4997782;28;20121;-72
2023/03/31 04:49:55;;;;;;;5.45;1.00;;;10.20;99.90;;;;;;5002870;28;20664;-74
2023/03/31 04:52:20;;;;;;;13.75;2.33;;;10.20;99.90;;;;;;5023577;28;20037;-74
2023/03/31 04:54:46;;;;;;;13.73;1.55;;;10.20;99.90;;;;;;4998901;28;20052;-76
2023/03/31 04:57:12;;;;;;;6.82;1.40;;;10.20;99.90;;;;;;5018285;28;20072;-73
2023/03/31 04:59:38;;;;;;;5.55;1.55;;;10.20;99.90;;;;;;4995881;28;20066;-76
2023/03/31 05:02:03;;;;;;;9.27;1.13;;;10.20;99.90;;;;;;4998934;28;20363;-72
2023/03/31 05:04:29;;;;;;;10.60;1.40;;;10.20;99.90;;;;;;4995694;28;20038;-74
2023/03/31 05:06:55;;;;;;;3.85;0.90;;;10.20;99.90;;;;;;5011372;28;20109;-73
2023/03/31 05:09:21;;;;;;;9.40;1.33;;;10.20;99.90;;;;;;4997537;28;20037;-71
2023/03/31 05:11:46;;;;;;;7.53;1.88;;;10.20;99.90;;;;;;4999467;28;20038;-71
2023/03/31 05:14:12;;;;;;;6.60;1.40;;;10.20;99.90;;;;;;4996805;28;20138;-72
2023/03/31 05:16:38;;;;;;;6.00;1.50;;;10.20;99.90;;;;;;4998717;28;20042;-71
2023/03/31 05:19:03;;;;;;;4.07;1.13;;;10.20;99.90;;;;;;4996621;28;20121;-75
2023/03/31 05:21:30;;;;;;;6.70;1.10;;;10.20;99.90;;;;;;4995621;28;20033;-73
2023/03/31 05:23:56;;;;;;;10.25;1.30;;;10.20;99.90;;;;;;5010620;28;20053;-74
2023/03/31 05:26:24;;;;;;;5.65;1.02;;;10.20;99.90;;;;;;4996328;28;20038;-73
2023/03/31 05:28:50;;;;;;;5.78;0.98;;;10.20;99.90;;;;;;4997220;28;20394;-72
2023/03/31 05:31:16;;;;;;;9.80;1.35;;;10.20;99.90;;;;;;5001954;28;20526;-73
2023/03/31 05:33:42;;;;;;;5.30;1.23;;;10.20;99.90;;;;;;5010783;28;20114;-73
2023/03/31 05:36:15;;;;;;;6.32;0.93;;;10.20;99.90;;;;;;5001629;28;20033;-73
2023/03/31 05:38:42;;;;;;;5.85;1.15;;;10.20;99.90;;;;;;5000699;28;20112;-73
2023/03/31 05:41:08;;;;;;;5.07;1.10;;;10.20;99.90;;;;;;5001195;28;20029;-74
2023/03/31 05:43:35;;;;;;;3.75;0.73;;;10.20;99.90;;;;;;4998462;28;20030;-74
2023/03/31 05:46:01;;;;;;;3.92;0.82;;;10.20;99.90;;;;;;4999117;28;20041;-72
2023/03/31 05:48:26;;;;;;;8.75;0.90;;;10.20;99.90;;;;;;5000736;28;20433;-74
2023/03/31 05:50:57;;;;;;;13.38;1.20;;;10.20;99.90;;;;;;5000246;28;20030;-72
2023/03/31 05:53:23;;;;;;;7.45;1.00;;;10.20;99.90;;;;;;4999086;28;20041;-73
2023/03/31 05:55:48;;;;;;;5.78;1.35;;;10.20;99.90;;;;;;5001492;28;20038;-74
2023/03/31 05:58:14;;;;;;;4.80;1.00;;;10.20;99.90;;;;;;4998694;28;20049;-74
2023/03/31 06:00:39;;;;;;;6.05;0.98;;;10.20;99.90;;;;;;4996192;28;20030;-73
2023/03/31 06:03:06;;;;;;;2.38;0.90;;;10.30;99.90;;;;;;4998590;28;20048;-74
2023/03/31 06:05:33;;;;;;;5.75;1.13;;;10.30;99.90;;;;;;4997661;28;20048;-75
2023/03/31 06:07:59;;;;;;;6.50;0.70;;;10.30;99.90;;;;;;4998750;28;20038;-74
2023/03/31 06:10:25;;;;;;;9.10;0.80;;;10.30;99.90;;;;;;5002812;28;20049;-74
2023/03/31 06:12:50;;;;;;;7.55;0.88;;;10.30;99.90;;;;;;5002724;28;20542;-72
2023/03/31 06:15:16;;;;;;;5.45;0.50;;;10.30;99.90;;;;;;4998969;28;20037;-74
2023/03/31 06:17:42;;;;;;;6.30;0.70;;;10.40;99.90;;;;;;5000421;28;20380;-73
2023/03/31 06:20:08;;;;;;;8.32;0.90;;;10.40;99.90;;;;;;4997559;28;20044;-75
2023/03/31 06:22:34;;;;;;;7.85;1.08;;;10.40;99.90;;;;;;4995987;28;20038;-76
2023/03/31 06:24:59;;;;;;;3.97;0.70;;;10.40;99.90;;;;;;5001429;28;20042;-74
2023/03/31 06:27:25;;;;;;;4.88;0.82;;;10.40;99.90;;;;;;5027129;28;20946;-75
2023/03/31 06:29:50;;;;;;;3.25;0.90;;;10.40;99.90;;;;;;4996144;28;20038;-74
2023/03/31 06:32:16;;;;;;;5.40;0.82;;;10.40;99.90;;;;;;4997672;28;20087;-75
2023/03/31 06:34:41;;;;;;;4.35;0.63;;;10.40;99.90;;;;;;4992790;28;20096;-77
2023/03/31 06:37:07;;;;;;;5.05;0.57;;;10.30;99.90;;;;;;4997949;28;20056;-75
2023/03/31 06:39:32;;;;;;;5.97;0.63;;;10.30;99.90;;;;;;4993393;28;20049;-74
2023/03/31 06:41:58;;;;;;;4.57;0.90;;;10.30;99.90;;;;;;5008042;28;20041;-74
2023/03/31 06:44:24;;;;;;;4.75;0.50;;;10.40;99.90;;;;;;5012742;28;20691;-73
2023/03/31 06:46:49;;;;;;;8.55;1.15;;;10.30;99.90;;;;;;4994750;28;20107;-73
2023/03/31 06:49:15;;;;;;;3.60;0.47;;;10.30;99.90;;;;;;5001291;28;20022;-73
2023/03/31 06:51:40;;;;;;;8.68;1.20;;;10.30;99.90;;;;;;4999207;28;20481;-74
2023/03/31 06:54:06;;;;;;;3.67;0.75;;;10.30;99.90;;;;;;5009766;28;20046;-73
2023/03/31 06:56:32;;;;;;;2.33;0.50;;;10.30;99.90;;;;;;4998794;28;20490;-73
2023/03/31 06:58:57;;;;;;;2.67;0.40;;;10.30;99.90;;;;;;5005059;28;20402;-73
2023/03/31 07:01:23;;;;;;;5.93;0.50;;;10.30;99.90;;;;;;5004327;28;20037;-74
2023/03/31 07:03:49;;;;;;;3.50;0.52;;;10.30;99.90;;;;;;5002942;28;20042;-74
2023/03/31 07:06:14;;;;;;;1.23;0.50;;;10.30;99.90;;;;;;5003355;28;20069;-75
2023/03/31 07:08:40;;;;;;;7.70;0.68;;;10.30;99.90;;;;;;5005424;28;20049;-73
2023/03/31 07:11:05;;;;;;;3.25;0.77;;;10.20;99.90;;;;;;5004435;28;20049;-76
2023/03/31 07:13:31;;;;;;;2.60;0.43;;;10.20;99.90;;;;;;5003069;28;20046;-72
2023/03/31 07:15:57;;;;;;;4.55;0.60;;;10.20;99.90;;;;;;5022451;28;20038;-74
2023/03/31 07:18:30;;;;;;;4.22;0.60;;;10.30;99.90;;;;;;4997622;28;20581;-74
2023/03/31 07:20:56;;;;;;;6.43;0.45;;;10.30;99.90;;;;;;5000987;28;20049;-73
2023/03/31 07:23:22;;;;;;;5.85;0.65;;;10.30;99.90;;;;;;5001012;28;20045;-73
2023/03/31 07:25:48;;;;;;;5.18;0.47;;;10.30;99.90;;;;;;5004754;28;20034;-76
2023/03/31 07:28:14;;;;;;;4.57;0.70;;;10.30;99.90;;;;;;5003876;28;20041;-75
2023/03/31 07:30:40;;;;;;;3.67;0.40;;;10.40;99.90;;;;;;4997742;28;20871;-73
2023/03/31 07:33:06;;;;;;;5.50;0.70;;;10.40;99.90;;;;;;5002384;28;20041;-73
2023/03/31 07:35:32;;;;;;;6.22;0.50;;;10.40;99.90;;;;;;5001561;28;20056;-72
2023/03/31 07:37:58;;;;;;;12.20;0.73;;;10.40;99.90;;;;;;5003168;28;20034;-73
2023/03/31 07:40:25;;;;;;;4.32;0.40;;;10.50;99.90;;;;;;4997220;28;20585;-73
2023/03/31 07:42:52;;;;;;;7.38;1.67;;;10.50;99.90;;;;;;5001070;28;20042;-73
2023/03/31 07:45:20;;;;;;;5.57;0.90;;;10.50;99.90;;;;;;5001069;28;20038;-74
2023/03/31 07:47:45;;;;;;;4.07;0.80;;;10.50;99.90;;;;;;4999112;28;20033;-71
2023/03/31 07:50:12;;;;;;;4.60;1.50;;;10.60;99.90;;;;;;5000990;28;20068;-73
2023/03/31 07:52:38;;;;;;;5.05;0.80;;;10.60;99.90;;;;;;5001515;28;20045;-78
2023/03/31 07:55:05;;;;;;;4.45;0.75;;;10.70;99.90;;;;;;4999805;28;20692;-73
2023/03/31 07:57:30;;;;;;;3.05;0.45;;;10.80;99.90;;;;;;4999109;28;20037;-74
2023/03/31 07:59:56;;;;;;;5.97;1.20;;;10.80;99.90;;;;;;4999120;28;20487;-73
2023/03/31 08:02:21;;;;;;;7.70;0.93;;;10.80;99.90;;;;;;5000091;28;20038;-73
2023/03/31 08:04:47;;;;;;;6.07;1.00;;;10.90;99.90;;;;;;5000606;28;20038;-74
2023/03/31 08:07:15;;;;;;;4.30;1.25;;;11.00;99.90;;;;;;5002289;28;20045;-74
2023/03/31 08:09:43;;;;;;;3.63;0.68;;;11.10;99.90;;;;;;5001160;28;20406;-74
2023/03/31 08:12:09;;;;;;;3.65;0.60;;;11.10;99.90;;;;;;5000164;28;20033;-74
2023/03/31 08:14:34;;;;;;;6.90;1.23;;;11.00;99.90;;;;;;5001623;28;20092;-74
2023/03/31 08:17:00;;;;;;;7.03;1.60;;;11.00;99.90;;;;;;5000943;28;20037;-76
2023/03/31 08:19:26;;;;;;;6.45;1.15;;;11.00;99.90;;;;;;4999284;28;20084;-73
2023/03/31 08:21:52;;;;;;;8.55;1.73;;;11.00;99.90;;;;;;5001189;28;20045;-75
2023/03/31 08:24:18;;;;;;;13.88;1.83;;;10.90;99.90;;;;;;5000787;28;20034;-73
2023/03/31 08:26:44;;;;;;;6.93;1.80;;;10.90;99.90;;;;;;5000926;28;20034;-74
2023/03/31 08:29:09;;;;;;;7.13;1.50;;;10.90;99.90;;;;;;4999795;28;20038;-71
2023/03/31 08:31:35;;;;;;;13.23;1.73;;;10.90;99.90;;;;;;5001322;28;20030;-74
2023/03/31 08:34:01;;;;;;;7.45;1.58;;;10.80;99.90;;;;;;5000006;28;20034;-74
2023/03/31 08:36:27;;;;;;;12.13;1.90;;;10.90;99.90;;;;;;4999515;28;20064;-74
2023/03/31 08:38:53;;;;;;;10.45;1.80;;;10.90;99.90;;;;;;5000764;28;20071;-71
2023/03/31 08:41:36;;;;;;;8.32;2.17;;;10.90;99.90;;;;;;4998878;28;20030;-75
2023/03/31 08:44:36;;;;;;;10.52;1.50;;;10.90;99.90;;;;;;4998896;28;20029;-73
2023/03/31 08:47:04;;;;;;;14.82;2.05;;;11.00;99.90;;;;;;4994793;28;20137;-72
2023/03/31 08:49:37;;;;;;;14.05;2.22;;;11.10;99.90;;;;;;5013018;28;20037;-71
2023/03/31 08:52:11;;;;;;;15.88;2.88;;;11.00;99.90;;;;;;4998596;28;20028;-73
2023/03/31 08:54:43;;;;;;;14.75;2.17;;;11.00;99.90;;;;;;4999882;28;20034;-72
2023/03/31 08:57:18;;;;;;;12.95;2.10;;;11.00;99.90;;;;;;5015909;28;20033;-72
2023/03/31 08:59:45;;;;;;;19.98;2.03;;;11.00;99.90;;;;;;4992840;28;20398;-75
2023/03/31 09:02:47;;;;;;;14.68;1.98;;;11.00;99.90;;;;;;4999104;28;20801;-73
2023/03/31 09:05:38;;;;;;;12.18;1.85;;;11.10;99.90;;;;;;4995849;28;20042;-73
2023/03/31 09:08:18;;;;;;;9.35;1.98;;;11.00;99.90;;;;;;4998124;28;20084;-74
2023/03/31 09:10:59;;;;;;;12.20;2.05;;;11.10;99.90;;;;;;4993718;28;20100;-74
2023/03/31 09:13:39;;;;;;;13.00;2.00;;;11.30;99.90;;;;;;5000176;28;20026;-75
2023/03/31 09:16:14;;;;;;;17.65;2.42;;;11.50;99.90;;;;;;4997627;28;20065;-74
2023/03/31 09:18:45;;;;;;;10.27;1.95;;;11.60;99.90;;;;;;4996417;28;20034;-71
2023/03/31 09:21:40;;;;;;;12.80;2.10;;;11.80;99.90;;;;;;4998540;28;20514;-75
2023/03/31 09:24:22;;;;;;;17.98;2.50;;;12.00;99.90;;;;;;5003298;28;20049;-73
2023/03/31 09:26:52;;;;;;;9.45;2.42;;;12.30;99.90;;;;;;4998554;28;20706;-74
2023/03/31 09:29:28;;;;;;;12.88;2.22;;;12.40;99.90;;;;;;4999445;28;20030;-74
2023/03/31 09:31:55;;;;;;;12.45;2.80;;;12.50;99.90;;;;;;4995370;28;20042;-73
2023/03/31 09:34:28;;;;;;;10.40;2.63;;;12.60;99.90;;;;;;4996573;28;20034;-74
2023/03/31 09:36:53;;;;;;;10.70;2.03;;;12.70;99.90;;;;;;4995610;28;20049;-74
2023/03/31 09:39:19;;;;;;;7.07;1.70;;;12.80;99.90;;;;;;4998131;28;20038;-74
2023/03/31 09:41:48;;;;;;;8.18;2.17;;;12.90;99.90;;;;;;4998901;28;20034;-75
2023/03/31 09:44:27;;;;;;;11.70;1.50;;;13.00;99.90;;;;;;4997135;28;20037;-74
2023/03/31 09:46:54;;;;;;;15.00;2.13;;;12.90;99.90;;;;;;4993653;28;20094;-74
2023/03/31 09:49:23;;;;;;;6.53;1.30;;;12.90;99.90;;;;;;5004538;28;20490;-74
2023/03/31 09:52:01;;;;;;;10.55;1.85;;;12.90;99.90;;;;;;4995681;28;20105;-76
2023/03/31 09:54:35;;;;;;;9.75;2.13;;;13.00;99.90;;;;;;4997654;28;20041;-76
2023/03/31 09:57:02;;;;;;;12.15;1.60;;;13.00;99.90;;;;;;5010815;28;20030;-75
2023/03/31 09:59:33;;;;;;;15.23;2.45;;;13.00;99.90;;;;;;4997107;28;20034;-74
2023/03/31 10:02:21;;;;;;;8.68;1.30;;;13.00;99.90;;;;;;4997777;28;20474;-71
2023/03/31 10:04:47;;;;;;;11.57;1.98;;;13.10;99.90;;;;;;4996306;28;20627;-76
2023/03/31 10:07:19;;;;;;;15.10;1.88;;;13.00;99.90;;;;;;4996803;28;20042;-74
2023/03/31 10:09:45;;;;;;;14.82;2.03;;;12.90;99.90;;;;;;4992794;28;20653;-74
2023/03/31 10:12:23;;;;;;;7.15;1.98;;;12.90;99.90;;;;;;4997274;28;20104;-72
2023/03/31 10:14:51;;;;;;;15.25;2.72;;;12.90;99.90;;;;;;5016887;28;20034;-75
2023/03/31 10:17:22;;;;;;;13.00;1.77;;;13.00;99.90;;;;;;5005556;28;20113;-75
2023/03/31 10:19:53;;;;;;;6.40;1.80;;;13.10;99.90;;;;;;4998134;28;20040;-75
2023/03/31 10:22:21;;;;;;;5.22;1.13;;;13.30;99.90;;;;;;5002698;28;20033;-76
2023/03/31 10:24:51;;;;;;;9.35;2.47;;;13.30;99.90;;;;;;5005992;28;20128;-73
2023/03/31 10:27:29;;;;;;;6.20;1.67;;;13.40;99.90;;;;;;5002881;28;20038;-77
2023/03/31 10:29:57;;;;;;;11.80;1.45;;;13.30;99.90;;;;;;4997537;28;20026;-75
2023/03/31 10:32:27;;;;;;;9.98;1.42;;;13.40;99.90;;;;;;5002691;28;20125;-74
2023/03/31 10:34:55;;;;;;;7.43;1.10;;;13.40;99.90;;;;;;5000979;28;20117;-73
2023/03/31 10:37:23;;;;;;;4.90;1.20;;;13.30;99.90;;;;;;5005997;28;20033;-75
2023/03/31 10:40:05;;;;;;;8.77;1.98;;;13.30;99.90;;;;;;5025260;28;20038;-73
2023/03/31 10:42:31;;;;;;;5.35;1.45;;;13.20;99.90;;;;;;4997236;28;20092;-74
2023/03/31 10:45:23;;;;;;;8.45;1.30;;;13.20;99.90;;;;;;4995847;28;20033;-75
2023/03/31 10:47:52;;;;;;;9.18;1.67;;;13.20;99.90;;;;;;5018956;28;20053;-73
2023/03/31 10:50:17;;;;;;;10.43;1.77;;;13.10;99.90;;;;;;5020530;28;20367;-74
2023/03/31 10:52:46;;;;;;;11.93;1.88;;;13.10;99.90;;;;;;4994564;28;20065;-75
2023/03/31 10:55:18;;;;;;;7.10;1.33;;;13.10;99.90;;;;;;4997050;28;20045;-76
2023/03/31 10:57:47;;;;;;;6.00;1.33;;;13.10;99.90;;;;;;4995526;28;20041;-76
2023/03/31 11:00:39;;;;;;;8.75;1.67;;;13.00;99.90;;;;;;4997246;28;20042;-74
2023/03/31 11:03:36;;;;;;;8.88;1.65;;;12.80;99.90;;;;;;4998931;28;20045;-73
2023/03/31 11:06:33;;;;;;;9.77;1.90;;;12.70;99.90;;;;;;5009353;28;20051;-73
2023/03/31 11:09:11;;;;;;;7.85;1.70;;;12.40;99.90;;;;;;4993042;28;20857;-75
2023/03/31 11:11:55;;;;;;;5.97;1.08;;;12.30;99.90;;;;;;4998481;28;20124;-75
2023/03/31 11:14:47;;;;;;;10.00;2.05;;;12.10;99.90;;;;;;5002910;28;20065;-75
2023/03/31 11:17:33;;;;;;;8.15;0.93;;;11.90;99.90;;;;;;5003620;28;20034;-74
2023/03/31 11:20:33;;;;;;;17.20;2.10;;;11.70;99.90;;;;;;5001446;28;20037;-73
2023/03/31 11:23:31;;;;;;;16.13;2.13;;;11.60;99.90;;;;;;4996568;28;20068;-72
2023/03/31 11:26:13;;;;;;;8.32;1.38;;;11.50;99.90;;;;;;5001373;28;20030;-73
2023/03/31 11:28:48;;;;;;;10.45;1.63;;;11.40;99.90;;;;;;4999917;28;20498;-75
2023/03/31 11:31:35;;;;;;;13.07;1.65;;;11.50;99.90;;;;;;5001914;28;20470;-76
2023/03/31 11:34:25;;;;;;;14.07;2.63;;;11.50;99.90;;;;;;4999180;28;20100;-73
2023/03/31 11:37:12;;;;;;;10.15;2.30;;;11.40;99.90;;;;;;5000684;28;20107;-74
2023/03/31 11:40:21;;;;;;;17.13;1.98;;;11.50;99.90;;;;;;4998595;28;20394;-73
2023/03/31 11:42:50;;;;;;;17.13;2.97;;;11.50;99.90;;;;;;4955919;28;20045;-74
2023/03/31 11:45:24;;;;;;;9.50;1.55;;;11.60;99.90;;;;;;4960166;28;20035;-74
2023/03/31 11:47:53;;;;;;;10.10;1.80;;;11.70;99.90;;;;;;4979702;28;20124;-74
2023/03/31 11:50:33;;;;;;;8.32;2.08;;;11.90;99.90;;;;;;5001827;28;20092;-75
2023/03/31 11:53:13;;;;;;;8.80;1.13;;;12.00;99.90;;;;;;5000328;28;20081;-72
2023/03/31 11:55:40;;;;;;;10.65;1.80;;;12.30;99.90;;;;;;5000088;28;20060;-75
2023/03/31 11:58:14;;;;;;;5.30;0.80;;;12.40;99.90;;;;;;5001202;28;20030;-75
2023/03/31 12:00:50;;;;;;;10.68;1.27;;;12.40;99.90;;;;;;5000035;28;20084;-75
2023/03/31 12:03:23;;;;;;;7.60;1.33;;;12.50;99.90;;;;;;5003175;28;20033;-76
2023/03/31 12:05:55;;;;;;;3.83;0.55;;;12.60;99.90;;;;;;5001434;28;20050;-74
2023/03/31 12:08:32;;;;;;;3.78;0.47;;;12.60;99.90;;;;;;4999238;28;20775;-73
2023/03/31 12:11:15;;;;;;;9.90;0.93;;;12.50;99.90;;;;;;4998640;28;20034;-74
2023/03/31 12:13:47;;;;;;;5.90;0.40;;;12.60;99.90;;;;;;5000016;28;20038;-74
2023/03/31 12:16:25;;;;;;;7.25;0.90;;;12.50;99.90;;;;;;5001471;28;20445;-76
2023/03/31 12:19:21;;;;;;;3.30;0.50;;;12.30;99.90;;;;;;4998451;28;20076;-75
2023/03/31 12:21:55;;;;;;;8.27;0.80;;;12.30;99.90;;;;;;5015695;28;20038;-75
2023/03/31 12:24:21;;;;;;;7.07;0.70;;;12.20;99.90;;;;;;5001380;28;20060;-74
2023/03/31 12:26:58;;;;;;;7.00;0.82;;;12.20;99.90;;;;;;5001591;28;21787;-74
2023/03/31 12:29:32;;;;;;;4.35;1.10;;;12.20;99.90;;;;;;5001163;28;20076;-74
2023/03/31 12:32:04;;;;;;;9.38;1.02;;;12.20;99.90;;;;;;5001918;28;20030;-75
2023/03/31 12:34:31;;;;;;;6.53;0.90;;;12.20;99.90;;;;;;5001004;28;20030;-72
2023/03/31 12:36:57;;;;;;;8.50;1.35;;;12.10;99.90;;;;;;5001020;28;20041;-73
2023/03/31 12:40:12;;;;;;;4.90;0.98;;;12.20;99.90;;;;;;5001123;28;20490;-74
2023/03/31 12:42:59;;;;;;;8.77;1.33;;;12.20;99.90;;;;;;4999513;28;20034;-75
2023/03/31 12:45:25;;;;;;;6.40;0.82;;;12.20;99.90;;;;;;4999905;28;20033;-75
2023/03/31 12:48:00;;;;;;;3.63;0.60;;;12.20;99.90;;;;;;5001848;28;20038;-73
2023/03/31 12:50:52;;;;;;;5.53;0.88;;;12.00;99.90;;;;;;5000805;28;20041;-75
2023/03/31 12:53:57;;;;;;;6.47;0.70;;;12.00;99.90;;;;;;4998404;28;20034;-74
2023/03/31 12:56:22;;;;;;;9.95;1.15;;;11.90;99.90;;;;;;4997291;28;20482;-75
2023/03/31 12:58:48;;;;;;;7.05;1.15;;;11.90;99.90;;;;;;5001963;28;20038;-75
2023/03/31 13:01:16;;;;;;;9.52;1.63;;;12.00;99.90;;;;;;4997742;28;20042;-74
2023/03/31 13:03:49;;;;;;;9.35;1.40;;;12.00;99.90;;;;;;4998039;28;20092;-74
2023/03/31 13:06:24;;;;;;;9.98;1.17;;;12.00;99.90;;;;;;5022561;28;20401;-75
2023/03/31 13:08:53;;;;;;;10.73;1.33;;;12.00;99.90;;;;;;5010968;28;20041;-72